KEGV

Eagle River Union Airport

Eagle River, Wisconsin, USA
METAR KEGV 181635Z AUTO 23007KT 3SM BR OVC004 M03/M03 A2973 RMK AO2 T10311031
Observed Flight Rules
Dec-18 @ 16:35 UTC (10 minutes ago) Instrument Flight Rules
Wind Visibility Clouds Conditions
230° at 7 knots 3 miles
  • Overcast at 400' AGL
  • Mist
Temperatures Readings
Current -3°C / 27°F
Dewpoint -3°C / 27°F
Humidity 100%
Altimeter 29.73" Hg
Pressure 1007 hPa
Elevation 500
METAR KEGV 181635Z AUTO 23007KT 3SM BR OVC004 M03/M03 A2973 RMK AO2 T10311031
Observed Flight Rules
Dec-18 @ 16:35 UTC
(10 minutes ago)
LIFR
Wind Visibility
230° at 7 knots 3 miles
Clouds
  • Overcast at 400' AGL
Conditions
  • Mist
Temperature Dewpoint
-3°C / 27°F -3°C / 27°F
Humidity Altimeter Pressure
100% 29.73" Hg 1007 hPa